createdAt,value
2022-11-16T00:00:26.028Z,10.46
2022-11-16T00:01:09.270Z,10.50
2022-11-16T00:01:40.808Z,10.53
2022-11-16T00:02:13.197Z,10.50
2022-11-16T00:02:44.690Z,10.43
2022-11-16T00:03:18.768Z,10.54
2022-11-16T00:03:51.886Z,10.55
2022-11-16T00:04:23.305Z,10.53
2022-11-16T00:04:55.079Z,10.50
2022-11-16T00:05:28.543Z,10.50
2022-11-16T00:06:02.581Z,10.56
2022-11-16T00:06:34.063Z,10.49
2022-11-16T00:07:06.194Z,10.47
2022-11-16T00:07:37.831Z,10.50
2022-11-16T00:08:09.388Z,10.51
2022-11-16T00:08:44.223Z,10.50
2022-11-16T00:09:27.135Z,10.59
2022-11-16T00:09:58.715Z,10.57
2022-11-16T00:10:30.205Z,10.58
2022-11-16T00:11:16.176Z,10.59
2022-11-16T00:11:53.950Z,10.56
2022-11-16T00:12:25.407Z,10.52
2022-11-16T00:12:56.922Z,10.51
2022-11-16T00:13:28.346Z,10.55
2022-11-16T00:13:59.791Z,10.45
2022-11-16T00:14:34.432Z,10.49
2022-11-16T00:15:09.391Z,10.42
2022-11-16T00:15:40.833Z,10.50
2022-11-16T00:16:15.299Z,10.49
2022-11-16T00:16:47.028Z,10.53
2022-11-16T00:17:18.494Z,10.56
2022-11-16T00:17:49.899Z,10.58
2022-11-16T00:18:21.985Z,10.58
2022-11-16T00:18:58.120Z,10.51
2022-11-16T00:19:29.678Z,10.53
2022-11-16T00:20:01.130Z,10.56
2022-11-16T00:20:32.573Z,10.58
2022-11-16T00:21:05.422Z,10.57
2022-11-16T00:21:36.894Z,10.55
2022-11-16T00:22:08.327Z,10.49
2022-11-16T00:22:39.800Z,10.54
2022-11-16T00:23:11.247Z,10.60
2022-11-16T00:23:42.763Z,10.58
2022-11-16T00:24:18.371Z,10.52
2022-11-16T00:24:49.968Z,10.59
2022-11-16T00:25:21.407Z,10.53
2022-11-16T00:25:53.975Z,10.54
2022-11-16T00:26:25.715Z,10.56
2022-11-16T00:26:57.299Z,10.54
2022-11-16T00:27:28.816Z,10.46
2022-11-16T00:28:00.609Z,10.45
2022-11-16T00:28:32.381Z,10.52
2022-11-16T00:29:04.176Z,10.52
2022-11-16T00:29:35.596Z,10.55
2022-11-16T00:30:07.562Z,10.58
2022-11-16T00:30:39.085Z,10.55
2022-11-16T00:31:10.695Z,10.50
2022-11-16T00:31:42.267Z,10.56
2022-11-16T00:32:13.712Z,10.59
2022-11-16T00:32:47.944Z,10.58
2022-11-16T00:33:19.616Z,10.61
2022-11-16T00:33:51.519Z,10.58
2022-11-16T00:34:23.807Z,10.56
2022-11-16T00:34:55.262Z,10.57
2022-11-16T00:35:27.037Z,10.50
2022-11-16T00:36:01.219Z,10.60
2022-11-16T00:36:32.653Z,10.63
2022-11-16T00:37:04.106Z,10.61
2022-11-16T00:37:35.723Z,10.61
2022-11-16T00:38:07.462Z,10.53
2022-11-16T00:38:41.299Z,10.56
2022-11-16T00:39:14.300Z,10.53
2022-11-16T00:39:45.740Z,10.61
2022-11-16T00:40:18.116Z,10.58
2022-11-16T00:40:50.059Z,10.61
2022-11-16T00:41:21.528Z,10.64
2022-11-16T00:41:53.011Z,10.54
2022-11-16T00:42:24.528Z,10.50
2022-11-16T00:42:55.956Z,10.49
2022-11-16T00:43:27.731Z,10.50
2022-11-16T00:43:59.292Z,10.48
2022-11-16T00:44:30.737Z,10.52
2022-11-16T00:45:02.184Z,10.58
2022-11-16T00:45:33.795Z,10.52
2022-11-16T00:46:05.504Z,10.52
2022-11-16T00:46:37.737Z,10.55
2022-11-16T00:47:09.264Z,10.53
2022-11-16T00:47:40.715Z,10.55
2022-11-16T00:48:12.804Z,10.53
2022-11-16T00:48:44.431Z,10.55
2022-11-16T00:49:16.196Z,10.50
2022-11-16T00:49:47.647Z,10.55
2022-11-16T00:50:19.195Z,10.56
2022-11-16T00:50:50.812Z,10.61
2022-11-16T00:51:23.077Z,10.61
2022-11-16T00:51:54.674Z,10.58
2022-11-16T00:52:26.459Z,10.63
2022-11-16T00:52:58.923Z,10.66
2022-11-16T00:53:32.533Z,10.64
2022-11-16T00:54:05.046Z,10.64
2022-11-16T00:54:38.901Z,10.58
2022-11-16T00:55:10.611Z,10.65
2022-11-16T00:55:43.615Z,10.61
2022-11-16T00:56:15.180Z,10.64
2022-11-16T00:56:48.683Z,10.62
2022-11-16T00:57:20.436Z,10.58
2022-11-16T00:57:52.011Z,10.54
2022-11-16T00:58:25.201Z,10.55
2022-11-16T00:59:03.649Z,10.58
2022-11-16T00:59:35.117Z,10.57
2022-11-16T01:00:08.087Z,10.63
2022-11-16T01:00:40.869Z,10.58
2022-11-16T01:01:12.748Z,10.59
2022-11-16T01:01:44.345Z,10.64
2022-11-16T01:02:16.501Z,10.65
2022-11-16T01:02:47.927Z,10.61
2022-11-16T01:03:19.381Z,10.64
2022-11-16T01:03:50.911Z,10.65
2022-11-16T01:04:23.888Z,10.65
2022-11-16T01:04:55.305Z,10.59
2022-11-16T01:05:26.792Z,10.54
2022-11-16T01:06:06.655Z,10.58
2022-11-16T01:06:38.089Z,10.52
2022-11-16T01:07:09.847Z,10.60
2022-11-16T01:07:41.478Z,10.54
2022-11-16T01:08:13.904Z,10.54
2022-11-16T01:08:45.927Z,10.55
2022-11-16T01:09:17.603Z,10.51
2022-11-16T01:09:52.031Z,10.47
2022-11-16T01:10:25.223Z,10.54
2022-11-16T01:11:16.630Z,10.52
2022-11-16T01:12:06.494Z,10.54
2022-11-16T01:12:38.574Z,10.59
2022-11-16T01:13:11.022Z,10.53
2022-11-16T01:13:42.476Z,10.64
2022-11-16T01:14:14.074Z,10.55
2022-11-16T01:14:47.755Z,10.53
2022-11-16T01:15:22.559Z,10.64
2022-11-16T01:15:55.078Z,10.59
2022-11-16T01:16:26.511Z,10.59
2022-11-16T01:16:57.941Z,10.58
2022-11-16T01:17:29.492Z,10.56
2022-11-16T01:18:00.919Z,10.57
2022-11-16T01:18:32.715Z,10.53
2022-11-16T01:19:05.163Z,10.55
2022-11-16T01:19:37.720Z,10.63
2022-11-16T01:20:14.068Z,10.62
2022-11-16T01:20:45.555Z,10.63
2022-11-16T01:21:17.580Z,10.59
2022-11-16T01:21:49.058Z,10.60
2022-11-16T01:22:20.551Z,10.52
2022-11-16T01:22:52.196Z,10.57
2022-11-16T01:23:23.782Z,10.53
2022-11-16T01:23:57.107Z,10.49
2022-11-16T01:24:29.015Z,10.49
2022-11-16T01:25:00.874Z,10.52
2022-11-16T01:25:32.600Z,10.57
2022-11-16T01:26:04.125Z,10.58
2022-11-16T01:26:39.203Z,10.63
2022-11-16T01:27:10.833Z,10.55
2022-11-16T01:27:44.696Z,10.60
2022-11-16T01:28:22.803Z,10.58
2022-11-16T01:28:55.908Z,10.60
2022-11-16T01:29:29.048Z,10.58
2022-11-16T01:30:04.955Z,10.59
2022-11-16T01:30:38.573Z,10.62
2022-11-16T01:31:13.830Z,10.51
2022-11-16T01:31:46.145Z,10.53
2022-11-16T01:32:17.679Z,10.52
2022-11-16T01:32:49.196Z,10.58
2022-11-16T01:33:21.390Z,10.58
2022-11-16T01:33:54.315Z,10.58
2022-11-16T01:34:29.130Z,10.59
2022-11-16T01:35:07.923Z,10.65
2022-11-16T01:35:43.290Z,10.55
2022-11-16T01:36:15.352Z,10.52
2022-11-16T01:36:47.967Z,10.53
2022-11-16T01:37:20.202Z,10.48
2022-11-16T01:37:51.693Z,10.48
2022-11-16T01:38:28.424Z,10.55
2022-11-16T01:39:01.324Z,10.55
2022-11-16T01:39:37.440Z,10.50
2022-11-16T01:40:10.361Z,10.47
2022-11-16T01:40:43.549Z,10.52
2022-11-16T01:41:17.754Z,10.54
2022-11-16T01:41:54.049Z,10.52
2022-11-16T01:42:30.450Z,10.61
2022-11-16T01:43:14.481Z,10.62
2022-11-16T01:44:14.748Z,10.59
2022-11-16T01:45:17.152Z,10.54
2022-11-16T01:45:48.831Z,10.55
2022-11-16T01:46:20.531Z,10.50
2022-11-16T01:46:52.051Z,10.50
2022-11-16T01:47:24.069Z,10.58
2022-11-16T01:47:56.168Z,10.59
2022-11-16T01:48:32.590Z,10.59
2022-11-16T01:49:12.218Z,10.56
2022-11-16T01:49:50.187Z,10.55
2022-11-16T01:50:27.324Z,10.54
2022-11-16T01:50:59.036Z,10.61
2022-11-16T01:51:33.676Z,10.61
2022-11-16T01:52:08.929Z,10.58
2022-11-16T01:52:46.588Z,10.58
2022-11-16T01:53:18.323Z,10.53
2022-11-16T01:53:57.342Z,10.50
2022-11-16T01:54:29.772Z,10.53
2022-11-16T01:55:04.457Z,10.46
2022-11-16T01:55:48.503Z,10.57
2022-11-16T01:56:25.989Z,10.50
2022-11-16T01:57:15.536Z,10.49
2022-11-16T01:57:55.761Z,10.57
2022-11-16T01:58:27.542Z,10.53
2022-11-16T01:59:05.881Z,10.58
2022-11-16T01:59:38.351Z,10.53
2022-11-16T02:00:13.102Z,10.53
2022-11-16T02:00:55.153Z,10.60
2022-11-16T02:01:53.022Z,10.60
2022-11-16T02:02:26.283Z,10.57
2022-11-16T02:02:57.945Z,10.58
2022-11-16T02:03:41.512Z,10.57
2022-11-16T02:04:14.074Z,10.55
2022-11-16T02:04:51.385Z,10.51
2022-11-16T02:05:57.579Z,10.48
2022-11-16T02:06:31.970Z,10.51
2022-11-16T02:07:58.126Z,10.51
2022-11-16T02:09:07.199Z,10.47
2022-11-16T02:09:58.159Z,10.54
2022-11-16T02:10:41.601Z,10.53
2022-11-16T02:11:30.782Z,10.48
2022-11-16T02:12:13.110Z,10.45
2022-11-16T02:12:59.900Z,10.48
2022-11-16T02:13:51.406Z,10.50
2022-11-16T02:14:43.290Z,10.50
2022-11-16T02:15:27.907Z,10.62
2022-11-16T02:16:33.892Z,10.57
2022-11-16T02:17:44.645Z,10.55
2022-11-16T02:18:38.472Z,10.60
2022-11-16T02:19:10.375Z,10.52
2022-11-16T02:19:59.313Z,10.47
2022-11-16T02:20:58.689Z,10.54
2022-11-16T02:21:56.798Z,10.64
2022-11-16T02:23:01.996Z,10.61
2022-11-16T02:23:52.079Z,10.51
2022-11-16T02:24:47.394Z,10.50
2022-11-16T02:25:50.052Z,10.45
2022-11-16T02:26:49.711Z,10.41
2022-11-16T02:27:33.150Z,10.42
2022-11-16T02:28:32.396Z,10.63
2022-11-16T02:29:20.964Z,10.57
2022-11-16T02:29:54.226Z,10.55
2022-11-16T02:30:25.704Z,10.62
2022-11-16T02:31:00.581Z,10.54
2022-11-16T02:31:38.034Z,10.60
2022-11-16T02:32:31.253Z,10.55
2022-11-16T02:33:09.156Z,10.55
2022-11-16T02:33:41.647Z,10.55
2022-11-16T02:34:16.600Z,10.59
2022-11-16T02:34:57.502Z,10.64
2022-11-16T02:35:33.705Z,10.63
2022-11-16T02:36:11.420Z,10.63
2022-11-16T02:36:44.341Z,10.57
2022-11-16T02:37:20.398Z,10.52
2022-11-16T02:37:58.551Z,10.48
2022-11-16T02:38:33.543Z,10.56
2022-11-16T02:39:09.827Z,10.48
2022-11-16T02:39:41.902Z,10.50
2022-11-16T02:40:15.639Z,10.57
2022-11-16T02:40:50.724Z,10.50
2022-11-16T02:41:28.917Z,10.58
2022-11-16T02:42:01.899Z,10.60
2022-11-16T02:42:44.948Z,10.55
2022-11-16T02:43:26.370Z,10.54
2022-11-16T02:44:07.232Z,10.56
2022-11-16T02:44:43.948Z,10.61
2022-11-16T02:45:20.446Z,10.55
2022-11-16T02:45:55.512Z,10.55
2022-11-16T02:46:29.539Z,10.53
2022-11-16T02:47:05.082Z,10.61
2022-11-16T02:47:37.926Z,10.50
2022-11-16T02:48:14.393Z,10.56
2022-11-16T02:48:49.923Z,10.63
2022-11-16T02:49:23.693Z,10.58
2022-11-16T02:49:58.499Z,10.60
2022-11-16T02:50:31.054Z,10.57
2022-11-16T02:51:03.613Z,10.60
2022-11-16T02:51:36.528Z,10.57
2022-11-16T02:52:09.963Z,10.57
2022-11-16T02:52:41.542Z,10.55
2022-11-16T02:53:15.347Z,10.49
2022-11-16T02:54:20.443Z,10.54
2022-11-16T02:54:55.683Z,10.55
2022-11-16T02:55:28.829Z,10.59
2022-11-16T02:56:00.817Z,10.57
2022-11-16T02:56:42.925Z,10.52
2022-11-16T02:57:42.300Z,10.58
2022-11-16T02:58:24.796Z,10.56
2022-11-16T02:58:58.003Z,10.61
2022-11-16T02:59:43.296Z,10.53
2022-11-16T03:00:25.752Z,10.59
2022-11-16T03:01:05.309Z,10.54
2022-11-16T03:01:41.193Z,10.58
2022-11-16T03:02:34.639Z,10.54
2022-11-16T03:03:13.220Z,10.52
2022-11-16T03:03:58.906Z,10.53
2022-11-16T03:04:35.926Z,10.44
2022-11-16T03:05:08.671Z,10.50
2022-11-16T03:06:17.546Z,10.50
2022-11-16T03:06:50.308Z,10.42
2022-11-16T03:07:27.113Z,10.42
2022-11-16T03:08:14.688Z,10.44
2022-11-16T03:09:02.441Z,10.44
2022-11-16T03:09:37.042Z,10.44
2022-11-16T03:10:09.621Z,10.47
2022-11-16T03:11:00.496Z,10.43
2022-11-16T03:11:53.248Z,10.45
2022-11-16T03:12:29.745Z,10.46
2022-11-16T03:13:02.393Z,10.39
2022-11-16T03:13:35.899Z,10.40
2022-11-16T03:14:10.145Z,10.46
2022-11-16T03:14:52.336Z,10.54
2022-11-16T03:15:24.162Z,10.49
2022-11-16T03:15:56.445Z,10.48
2022-11-16T03:16:43.903Z,10.52
2022-11-16T03:17:26.340Z,10.52
2022-11-16T03:17:58.488Z,10.44
2022-11-16T03:18:30.089Z,10.44
2022-11-16T03:19:08.991Z,10.39
2022-11-16T03:19:57.846Z,10.43
2022-11-16T03:20:32.975Z,10.47
2022-11-16T03:21:27.158Z,10.44
2022-11-16T03:22:07.864Z,10.50
2022-11-16T03:22:54.351Z,10.49
2022-11-16T03:23:25.809Z,10.48
2022-11-16T03:23:57.617Z,10.47
2022-11-16T03:24:29.220Z,10.48
2022-11-16T03:25:00.731Z,10.46
2022-11-16T03:25:42.132Z,10.48
2022-11-16T03:26:17.023Z,10.53
2022-11-16T03:27:12.540Z,10.46
2022-11-16T03:28:08.497Z,10.50
2022-11-16T03:29:00.723Z,10.45
2022-11-16T03:29:47.259Z,10.44
2022-11-16T03:30:23.991Z,10.36
2022-11-16T03:31:01.598Z,10.42
2022-11-16T03:31:41.103Z,10.43
2022-11-16T03:32:19.029Z,10.40
2022-11-16T03:32:53.331Z,10.37
2022-11-16T03:33:31.001Z,10.31
2022-11-16T03:34:07.305Z,10.33
2022-11-16T03:34:41.662Z,10.38
2022-11-16T03:35:21.068Z,10.41
2022-11-16T03:36:16.322Z,10.37
2022-11-16T03:36:50.025Z,10.43
2022-11-16T03:37:24.385Z,10.40
2022-11-16T03:37:57.918Z,10.43
2022-11-16T03:38:31.637Z,10.39
2022-11-16T03:39:08.567Z,10.36
2022-11-16T03:39:42.053Z,10.38
2022-11-16T03:40:14.100Z,10.36
2022-11-16T03:40:47.263Z,10.37
2022-11-16T03:41:20.607Z,10.42
2022-11-16T03:41:53.498Z,10.38
2022-11-16T03:42:26.603Z,10.32
2022-11-16T03:42:59.670Z,10.35
2022-11-16T03:43:32.249Z,10.42
2022-11-16T03:44:05.892Z,10.36
2022-11-16T03:44:38.802Z,10.27
2022-11-16T03:45:13.432Z,10.32
2022-11-16T03:45:46.892Z,10.39
2022-11-16T03:46:19.444Z,10.38
2022-11-16T03:46:50.940Z,10.47
2022-11-16T03:47:22.401Z,10.40
2022-11-16T03:47:53.827Z,10.44
2022-11-16T03:48:26.087Z,10.46
2022-11-16T03:48:59.122Z,10.44
2022-11-16T03:49:34.112Z,10.31
2022-11-16T03:50:07.011Z,10.45
2022-11-16T03:50:39.025Z,10.42
2022-11-16T03:51:11.185Z,10.34
2022-11-16T03:51:44.242Z,10.37
2022-11-16T03:52:16.954Z,10.45
2022-11-16T03:52:48.787Z,10.42
2022-11-16T03:53:20.355Z,10.40
2022-11-16T03:53:51.884Z,10.45
2022-11-16T03:54:23.977Z,10.46
2022-11-16T03:54:55.429Z,10.40
2022-11-16T03:55:29.041Z,10.49
2022-11-16T03:56:00.778Z,10.49
2022-11-16T03:56:32.947Z,10.42
2022-11-16T03:57:04.405Z,10.38
2022-11-16T03:57:36.087Z,10.46
2022-11-16T03:58:07.533Z,10.44
2022-11-16T03:58:38.992Z,10.47
2022-11-16T03:59:10.681Z,10.49
2022-11-16T03:59:43.330Z,10.43
2022-11-16T04:00:15.821Z,10.41
2022-11-16T04:00:48.350Z,10.47
2022-11-16T04:01:19.918Z,10.49
2022-11-16T04:01:52.607Z,10.53
2022-11-16T04:02:24.252Z,10.51
2022-11-16T04:02:58.306Z,10.45
2022-11-16T04:03:29.836Z,10.49
2022-11-16T04:04:02.244Z,10.46
2022-11-16T04:05:09.180Z,10.52
2022-11-16T04:05:59.780Z,10.50
2022-11-16T04:06:49.936Z,10.56
2022-11-16T04:07:40.139Z,10.51
2022-11-16T04:08:34.800Z,10.46
2022-11-16T04:09:25.210Z,10.48
2022-11-16T04:10:15.233Z,10.49
2022-11-16T04:11:05.747Z,10.44
2022-11-16T04:11:56.761Z,10.46
2022-11-16T04:12:47.320Z,10.46
2022-11-16T04:13:44.362Z,10.48
2022-11-16T04:14:39.123Z,10.50
2022-11-16T04:15:31.158Z,10.49
2022-11-16T04:16:21.589Z,10.48
2022-11-16T04:17:11.702Z,10.51
2022-11-16T04:18:01.819Z,10.48
2022-11-16T04:18:51.845Z,10.50
2022-11-16T04:19:41.976Z,10.48
2022-11-16T04:20:33.962Z,10.47
2022-11-16T04:21:27.116Z,10.51
2022-11-16T04:22:21.605Z,10.51
2022-11-16T04:23:15.483Z,10.47
2022-11-16T04:24:06.305Z,10.48
2022-11-16T04:24:40.254Z,10.47
2022-11-16T04:25:15.167Z,10.46
2022-11-16T04:25:47.831Z,10.42
2022-11-16T04:26:41.672Z,10.46
2022-11-16T04:27:32.910Z,10.48
2022-11-16T04:28:14.206Z,10.51
2022-11-16T04:28:50.023Z,10.43
2022-11-16T04:29:21.845Z,10.45
2022-11-16T04:29:54.456Z,10.60
2022-11-16T04:30:26.303Z,10.51
2022-11-16T04:31:18.362Z,10.52
2022-11-16T04:32:13.105Z,10.46
2022-11-16T04:33:03.193Z,10.61
2022-11-16T04:33:53.774Z,10.55
2022-11-16T04:34:43.839Z,10.52
2022-11-16T04:35:47.501Z,10.62
2022-11-16T04:36:38.286Z,10.55
2022-11-16T04:37:32.798Z,10.57
2022-11-16T04:38:04.465Z,10.60
2022-11-16T04:38:38.854Z,10.54
2022-11-16T04:39:10.356Z,10.51
2022-11-16T04:39:41.924Z,10.55
2022-11-16T04:40:18.497Z,10.55
2022-11-16T04:40:50.021Z,10.52
2022-11-16T04:41:45.118Z,10.57
2022-11-16T04:42:19.951Z,10.57
2022-11-16T04:42:55.961Z,10.59
2022-11-16T04:43:27.403Z,10.64
2022-11-16T04:43:59.011Z,10.58
2022-11-16T04:44:50.526Z,10.55
2022-11-16T04:45:42.068Z,10.56
2022-11-16T04:46:32.635Z,10.53
2022-11-16T04:47:06.974Z,10.48
2022-11-16T04:47:39.220Z,10.56
2022-11-16T04:48:12.225Z,10.56
2022-11-16T04:48:44.391Z,10.58
2022-11-16T04:49:15.819Z,10.53
2022-11-16T04:49:47.973Z,10.56
2022-11-16T04:50:20.089Z,10.56
2022-11-16T04:50:53.275Z,10.51
2022-11-16T04:51:24.752Z,10.52
2022-11-16T04:51:56.367Z,10.59
2022-11-16T04:52:27.866Z,10.57
2022-11-16T04:53:00.865Z,10.61
2022-11-16T04:53:33.416Z,10.60
2022-11-16T04:54:12.739Z,10.60
2022-11-16T04:54:44.320Z,10.61
2022-11-16T04:55:18.016Z,10.57
2022-11-16T04:55:51.112Z,10.60
2022-11-16T04:56:24.678Z,10.66
2022-11-16T04:56:56.144Z,10.59
2022-11-16T04:57:28.636Z,10.61
2022-11-16T04:58:01.416Z,10.67
2022-11-16T04:58:33.219Z,10.67
2022-11-16T04:59:05.269Z,10.72
2022-11-16T04:59:36.716Z,10.64
2022-11-16T05:00:09.311Z,10.61
2022-11-16T05:00:42.313Z,10.59
2022-11-16T05:01:14.874Z,10.58
2022-11-16T05:02:06.051Z,10.67
2022-11-16T05:02:37.511Z,10.75
2022-11-16T05:03:08.953Z,10.73
2022-11-16T05:03:40.447Z,10.73
2022-11-16T05:04:12.039Z,10.66
2022-11-16T05:04:44.268Z,10.75
2022-11-16T05:05:16.769Z,10.78
2022-11-16T05:05:50.229Z,10.71
2022-11-16T05:06:21.878Z,10.68
2022-11-16T05:06:53.807Z,10.63
2022-11-16T05:07:26.161Z,10.58
2022-11-16T05:08:05.125Z,10.57
2022-11-16T05:08:37.675Z,10.54
2022-11-16T05:09:09.903Z,10.51
2022-11-16T05:09:43.579Z,10.55
2022-11-16T05:10:17.125Z,10.52
2022-11-16T05:10:51.367Z,10.56
2022-11-16T05:11:23.766Z,10.53
2022-11-16T05:11:55.583Z,10.56
2022-11-16T05:12:27.982Z,10.52
2022-11-16T05:13:03.058Z,10.54
2022-11-16T05:13:34.486Z,10.51
2022-11-16T05:14:08.730Z,10.50
2022-11-16T05:14:41.722Z,10.50
2022-11-16T05:15:13.223Z,10.58
2022-11-16T05:15:47.728Z,10.55
2022-11-16T05:16:19.266Z,10.59
2022-11-16T05:16:50.924Z,10.52
2022-11-16T05:17:23.171Z,10.45
2022-11-16T05:17:55.718Z,10.45
2022-11-16T05:18:29.626Z,10.51
2022-11-16T05:19:19.923Z,10.45
2022-11-16T05:20:10.243Z,10.43
2022-11-16T05:21:01.752Z,10.41
2022-11-16T05:21:40.940Z,10.42
2022-11-16T05:22:13.695Z,10.45
2022-11-16T05:22:45.227Z,10.44
2022-11-16T05:23:35.220Z,10.43
2022-11-16T05:24:31.357Z,10.48
2022-11-16T05:25:03.980Z,10.49
2022-11-16T05:25:37.059Z,10.43
2022-11-16T05:26:11.453Z,10.42
2022-11-16T05:26:43.223Z,10.40
2022-11-16T05:27:16.443Z,10.39
2022-11-16T05:27:48.190Z,10.39
2022-11-16T05:28:20.280Z,10.38
2022-11-16T05:28:51.890Z,10.37
2022-11-16T05:29:23.338Z,10.39
2022-11-16T05:29:55.334Z,10.39
2022-11-16T05:30:29.628Z,10.41
2022-11-16T05:31:03.295Z,10.38
2022-11-16T05:31:40.311Z,10.39
2022-11-16T05:32:13.396Z,10.40
2022-11-16T05:32:44.939Z,10.41
2022-11-16T05:33:18.673Z,10.39
2022-11-16T05:33:50.222Z,10.37
2022-11-16T05:34:23.348Z,10.36
2022-11-16T05:34:54.796Z,10.36
2022-11-16T05:35:27.504Z,10.35
2022-11-16T05:35:59.037Z,10.36
2022-11-16T05:36:31.348Z,10.33
2022-11-16T05:37:03.187Z,10.34
2022-11-16T05:37:35.199Z,10.35
2022-11-16T05:38:06.948Z,10.33
2022-11-16T05:38:43.077Z,10.36
2022-11-16T05:39:14.750Z,10.37
2022-11-16T05:39:49.744Z,10.32
2022-11-16T05:40:21.266Z,10.32
2022-11-16T05:41:01.009Z,10.34
2022-11-16T05:41:32.690Z,10.31
2022-11-16T05:42:04.848Z,10.38
2022-11-16T05:42:36.398Z,10.32
2022-11-16T05:43:07.947Z,10.32
2022-11-16T05:43:44.527Z,10.31
2022-11-16T05:44:23.498Z,10.34
2022-11-16T05:44:55.243Z,10.37
2022-11-16T05:45:26.727Z,10.33
2022-11-16T05:45:58.320Z,10.31
2022-11-16T05:46:29.757Z,10.32
2022-11-16T05:47:04.056Z,10.32
2022-11-16T05:47:35.809Z,10.31
2022-11-16T05:48:07.896Z,10.35
2022-11-16T05:48:39.459Z,10.32
2022-11-16T05:49:12.026Z,10.34
2022-11-16T05:49:43.496Z,10.31
2022-11-16T05:50:15.391Z,10.31
2022-11-16T05:50:50.948Z,10.31
2022-11-16T05:51:29.136Z,10.34
2022-11-16T05:52:00.836Z,10.31
2022-11-16T05:52:33.512Z,10.38
2022-11-16T05:53:09.823Z,10.33
2022-11-16T05:53:41.430Z,10.30
2022-11-16T05:54:18.801Z,10.32
2022-11-16T05:54:50.402Z,10.30
2022-11-16T05:55:22.023Z,10.30
2022-11-16T05:55:53.762Z,10.28
2022-11-16T05:56:26.089Z,10.28
2022-11-16T05:56:59.233Z,10.26
2022-11-16T05:57:30.692Z,10.26
2022-11-16T05:58:02.138Z,10.26
2022-11-16T05:58:33.905Z,10.24
2022-11-16T05:59:05.927Z,10.23
2022-11-16T05:59:37.604Z,10.22
2022-11-16T06:00:10.312Z,10.21
2022-11-16T06:00:51.154Z,10.21
2022-11-16T06:01:24.996Z,10.19
2022-11-16T06:01:56.632Z,10.17
2022-11-16T06:02:28.110Z,10.13
2022-11-16T06:02:59.909Z,10.09
2022-11-16T06:03:36.418Z,10.08
2022-11-16T06:04:08.598Z,10.05
2022-11-16T06:04:40.076Z,10.08
2022-11-16T06:05:12.580Z,10.08
2022-11-16T06:05:44.189Z,10.11
2022-11-16T06:06:20.063Z,10.03
2022-11-16T06:06:52.622Z,9.98
2022-11-16T06:07:24.433Z,9.96
2022-11-16T06:07:55.957Z,9.93
2022-11-16T06:08:28.703Z,9.94
2022-11-16T06:09:02.909Z,9.99
2022-11-16T06:09:35.724Z,10.00
2022-11-16T06:10:16.929Z,9.94
2022-11-16T06:10:51.001Z,9.95
2022-11-16T06:11:23.143Z,9.94
2022-11-16T06:11:54.650Z,9.92
2022-11-16T06:12:26.170Z,9.89
2022-11-16T06:12:58.421Z,9.88
2022-11-16T06:13:30.929Z,9.86
2022-11-16T06:14:04.768Z,9.83
2022-11-16T06:14:37.030Z,9.84
2022-11-16T06:15:09.879Z,9.87
2022-11-16T06:15:41.635Z,9.77
2022-11-16T06:16:14.412Z,9.76
2022-11-16T06:16:45.847Z,9.77
2022-11-16T06:17:17.339Z,9.78
2022-11-16T06:17:49.827Z,9.79
2022-11-16T06:18:21.440Z,9.78
2022-11-16T06:18:54.051Z,9.76
2022-11-16T06:19:31.070Z,9.74
2022-11-16T06:20:04.189Z,9.75
2022-11-16T06:20:38.780Z,9.73
2022-11-16T06:21:11.646Z,9.74
2022-11-16T06:21:43.164Z,9.77
2022-11-16T06:22:20.847Z,9.75
2022-11-16T06:22:52.871Z,9.71
2022-11-16T06:23:24.519Z,9.71
2022-11-16T06:23:57.434Z,9.67
2022-11-16T06:24:28.948Z,9.70
2022-11-16T06:25:00.470Z,9.73
2022-11-16T06:25:32.485Z,9.67
2022-11-16T06:26:05.098Z,9.71
2022-11-16T06:26:37.153Z,9.73
2022-11-16T06:27:08.714Z,9.70
2022-11-16T06:27:40.606Z,9.66
2022-11-16T06:28:13.769Z,9.66
2022-11-16T06:28:45.205Z,9.67
2022-11-16T06:29:17.324Z,9.65
2022-11-16T06:29:49.503Z,9.63
2022-11-16T06:30:20.957Z,9.81
2022-11-16T06:30:52.453Z,9.68
2022-11-16T06:31:23.973Z,9.66
2022-11-16T06:31:55.387Z,9.67
2022-11-16T06:32:27.353Z,9.63
2022-11-16T06:32:59.167Z,9.65
2022-11-16T06:33:33.611Z,9.62
2022-11-16T06:34:08.044Z,9.62
2022-11-16T06:34:39.532Z,9.60
2022-11-16T06:35:11.101Z,9.60
2022-11-16T06:35:43.663Z,9.60
2022-11-16T06:36:15.284Z,9.57
2022-11-16T06:36:47.143Z,9.57
2022-11-16T06:37:18.891Z,9.56
2022-11-16T06:37:50.346Z,9.54
2022-11-16T06:38:23.326Z,9.52
2022-11-16T06:39:00.310Z,9.52
2022-11-16T06:39:33.479Z,9.54
2022-11-16T06:40:05.672Z,9.50
2022-11-16T06:40:40.984Z,9.44
2022-11-16T06:41:12.473Z,9.48
2022-11-16T06:41:48.629Z,9.48
2022-11-16T06:42:20.131Z,9.49
2022-11-16T06:42:51.777Z,9.44
2022-11-16T06:43:24.536Z,9.45
2022-11-16T06:43:56.075Z,9.44
2022-11-16T06:44:33.231Z,9.41
2022-11-16T06:45:07.940Z,9.39
2022-11-16T06:45:44.241Z,9.42
2022-11-16T06:46:16.052Z,9.43
2022-11-16T06:46:47.481Z,9.43
2022-11-16T06:47:18.912Z,9.48
2022-11-16T06:47:50.395Z,9.44
2022-11-16T06:48:22.414Z,9.44
2022-11-16T06:48:53.871Z,9.45
2022-11-16T06:49:25.396Z,9.42
2022-11-16T06:49:59.202Z,9.43
2022-11-16T06:50:30.652Z,9.41
2022-11-16T06:51:02.521Z,9.43
2022-11-16T06:51:34.271Z,9.41
2022-11-16T06:52:05.828Z,9.39
2022-11-16T06:52:37.524Z,9.39
2022-11-16T06:53:09.034Z,9.38
2022-11-16T06:53:40.529Z,9.37
2022-11-16T06:54:12.474Z,9.43
2022-11-16T06:54:43.930Z,9.48
2022-11-16T06:55:16.572Z,9.45
2022-11-16T06:55:48.414Z,9.47
2022-11-16T06:56:20.149Z,9.44
2022-11-16T06:56:56.663Z,9.41
2022-11-16T06:57:28.142Z,9.41
2022-11-16T06:58:00.992Z,9.40
2022-11-16T06:58:34.264Z,9.44
2022-11-16T06:59:06.015Z,9.40
2022-11-16T06:59:37.484Z,9.38
2022-11-16T07:00:11.075Z,9.35
2022-11-16T07:00:42.839Z,9.36
2022-11-16T07:01:15.785Z,9.34
2022-11-16T07:01:49.416Z,9.29
2022-11-16T07:02:22.876Z,9.32
2022-11-16T07:02:54.602Z,9.32
2022-11-16T07:03:27.114Z,9.33
2022-11-16T07:03:58.833Z,9.32
2022-11-16T07:04:32.297Z,9.34
2022-11-16T07:05:05.216Z,9.33
2022-11-16T07:05:40.899Z,9.26
2022-11-16T07:06:16.452Z,9.27
2022-11-16T07:06:50.314Z,9.26
2022-11-16T07:07:22.926Z,9.26
2022-11-16T07:07:55.355Z,9.24
2022-11-16T07:08:27.899Z,9.28
2022-11-16T07:08:59.355Z,9.24
2022-11-16T07:09:34.886Z,9.24
2022-11-16T07:10:06.902Z,9.26
2022-11-16T07:10:38.516Z,9.24
2022-11-16T07:11:11.530Z,9.25
2022-11-16T07:11:43.436Z,9.23
2022-11-16T07:12:15.346Z,9.22
2022-11-16T07:12:46.849Z,9.18
2022-11-16T07:13:19.746Z,9.16
2022-11-16T07:13:51.318Z,9.13
2022-11-16T07:14:22.935Z,9.28
2022-11-16T07:14:54.423Z,9.21
2022-11-16T07:15:26.444Z,9.19
2022-11-16T07:16:08.542Z,9.21
2022-11-16T07:16:40.203Z,9.33
2022-11-16T07:17:11.735Z,9.20
2022-11-16T07:17:44.052Z,9.17
2022-11-16T07:18:15.504Z,9.16
2022-11-16T07:18:47.284Z,9.15
2022-11-16T07:19:19.275Z,9.21
2022-11-16T07:19:50.712Z,9.30
2022-11-16T07:20:23.115Z,9.30
2022-11-16T07:20:55.364Z,9.29
2022-11-16T07:21:26.902Z,9.30
2022-11-16T07:21:59.939Z,9.37
2022-11-16T07:22:32.348Z,9.26
2022-11-16T07:23:08.016Z,9.32
2022-11-16T07:23:43.147Z,9.42
2022-11-16T07:24:17.527Z,9.50
2022-11-16T07:24:49.128Z,9.50
2022-11-16T07:25:20.869Z,9.38
2022-11-16T07:25:52.492Z,9.28
2022-11-16T07:26:35.338Z,9.24
2022-11-16T07:27:13.036Z,9.12
2022-11-16T07:27:48.565Z,9.08
2022-11-16T07:28:20.052Z,9.03
2022-11-16T07:28:51.535Z,8.99
2022-11-16T07:29:26.063Z,8.98
2022-11-16T07:30:26.133Z,8.89
2022-11-16T07:31:06.274Z,8.91
2022-11-16T07:31:38.251Z,8.88
2022-11-16T07:32:29.957Z,8.97
2022-11-16T07:33:15.485Z,8.98
2022-11-16T07:34:05.556Z,9.01
2022-11-16T07:34:46.479Z,8.99
2022-11-16T07:35:20.509Z,9.03
2022-11-16T07:35:52.011Z,9.03
2022-11-16T07:36:24.865Z,8.92
2022-11-16T07:36:58.534Z,8.99
2022-11-16T07:37:30.278Z,9.00
2022-11-16T07:38:02.300Z,8.97
2022-11-16T07:38:34.852Z,8.94
2022-11-16T07:39:09.280Z,9.01
2022-11-16T07:39:41.042Z,9.11
2022-11-16T07:40:13.971Z,8.98
2022-11-16T07:40:45.754Z,9.03
2022-11-16T07:41:20.810Z,9.04
2022-11-16T07:41:59.730Z,9.13
2022-11-16T07:42:45.272Z,8.98
2022-11-16T07:43:35.250Z,9.14
2022-11-16T07:44:16.006Z,9.28
2022-11-16T07:44:50.612Z,9.29
2022-11-16T07:45:22.052Z,9.29
2022-11-16T07:46:56.015Z,9.29
2022-11-16T07:47:27.507Z,9.31